• Join FlightAware (Why Join?)
  • Login
  • US Flag 
12:55AM EDT


 

Airport Tracker/Info


-or-


 

Live Flight TrackerFlight Track Log ✈ CPZ5714 ✈ 30-Jun-2013 ✈ KMSP - KALB

Flight Track Log - Related Links

Times and Time Zones

All times are in EDT time to prevent confusion due to time zone crossing. See the CPZ5714 flight status page for this flight to view local times or setup timezone preferences in your user account.

Time Position Orientation Groundspeed Altitude Reporting Facility
EDT Latitude Longitude Course Direction KTS MPH feet Rate Location/Type
08:58PM 44.9333 -93.2333 70° East 182 209 2,400  Level Minneapolis TRACON
08:58PM 44.9539 -93.2408 346° North 189 217 3,000 2,100 Climbing Minneapolis Center
08:59PM 45.0000 -93.1556 53° Northeast 247 284 5,800 2,760 Climbing Minneapolis Center
09:00PM 45.0333 -93.0642 63° Northeast 258 297 8,800 1,980 Climbing Minneapolis Center
09:02PM 45.0265 -92.8541 69° East  Level Estimated
09:02PM 45.1083 -92.8500 69° East 331 381 12,400  Level Minneapolis Center
09:03PM 45.1205 -92.3017 70° East  Level FlightAware Approximate
09:04PM 45.1439 -92.6958 72° East 346 398 15,000  Level Minneapolis Center
09:05PM 45.1694 -92.5617 75° East 354 407 16,900 1,740 Climbing Minneapolis Center
09:06PM 45.1956 -92.4233 75° East 361 415 18,600 1,860 Climbing Minneapolis Center
09:07PM 45.2272 -92.2497 75° East 380 437 20,800 1,800 Climbing Minneapolis Center
09:08PM 45.2544 -92.1050 75° East 382 440 22,400 1,320 Climbing Minneapolis Center
09:09PM 45.2833 -91.9533 75° East 393 452 23,600 1,200 Climbing Minneapolis Center
09:10PM 45.3128 -91.7997 75° East 404 465 24,900 1,140 Climbing Minneapolis Center
09:11PM 45.3414 -91.6403 76° East 416 479 26,000 960 Climbing Minneapolis Center
09:12PM 45.3681 -91.4783 77° East 420 483 27,000 840 Climbing Minneapolis Center
09:13PM 45.3989 -91.3142 75° East 428 493 27,800 840 Climbing Minneapolis Center
09:14PM 45.4319 -91.1181 76° East 439 505 28,800 780 Climbing Minneapolis Center
09:15PM 45.4564 -90.9822 76° East 443 510 29,500 780 Climbing Minneapolis Center
09:16PM 45.4769 -90.7736 82° East 444 511 30,500 780 Climbing Minneapolis Center
09:17PM 45.4650 -90.5956 95° East 451 519 31,200 600 Climbing Minneapolis Center
09:18PM 45.4542 -90.4172 95° East 454 522 31,800 660 Climbing Minneapolis Center
09:19PM 45.4400 -90.2019 95° East 457 526 32,600 540 Climbing Minneapolis Center
09:20PM 45.4281 -90.0225 95° East 457 526 33,000 180 Climbing Minneapolis Center
09:21PM 45.4153 -89.8386 96° East 466 536 33,000  Level Minneapolis Center
09:22PM 45.4028 -89.6486 95° East 481 554 33,000  Level Minneapolis Center
09:23PM 45.3894 -89.4594 96° East 483 556 33,000  Level Minneapolis Center
09:24PM 45.3753 -89.2697 96° East 484 557 33,000  Level Minneapolis Center
09:25PM 45.3581 -89.0428 96° East 486 559 33,000  Level Minneapolis Center
09:26PM 45.3439 -88.8514 96° East 488 562 33,000  Level Minneapolis Center
09:27PM 45.3286 -88.6614 96° East 487 560 33,000  Level Minneapolis Center
09:28PM 45.3147 -88.4706 96° East 488 562 33,000  Level Minneapolis Center
09:29PM 45.2983 -88.2789 97° East 490 564 33,000  Level Minneapolis Center
09:30PM 45.2811 -88.0628 96° East 486 559 33,000  Level Minneapolis Center
09:31PM 45.2650 -87.8725 97° East 485 558 33,000  Level Minneapolis Center
09:32PM 45.2483 -87.6806 97° East 489 563 33,000  Level Minneapolis Center
09:33PM 45.2311 -87.4908 97° East 487 560 33,000  Level Minneapolis Center
09:34PM 45.2142 -87.2997 97° East 487 560 33,000  Level Minneapolis Center
09:35PM 45.1964 -87.1119 98° East 483 556 33,000  Level Minneapolis Center
09:36PM 45.1817 -86.9600 98° East 485 558 33,000  Level Minneapolis Center
09:37PM 45.1589 -86.7139 97° East 484 557 33,000  Level Minneapolis Center
09:38PM 45.1431 -86.5614 98° East 488 562 33,000  Level Minneapolis Center
09:39PM 45.1211 -86.3344 98° East 487 560 33,000  Level Minneapolis Center
09:41PM 45.1025 -86.1464 98° East 484 557 33,000  Level Minneapolis Center
09:42PM 45.0872 -85.9964 98° East 483 556 33,000  Level Minneapolis Center
09:43PM 45.0647 -85.7717 98° East 482 555 33,000  Level Minneapolis Center
09:44PM 45.0419 -85.5561 98° East 483 556 33,000  Level Minneapolis Center
09:45PM 45.0217 -85.3686 99° East 482 555 33,000  Level Minneapolis Center
09:46PM 45.0008 -85.1806 99° East 484 557 33,000  Level Minneapolis Center
09:47PM 44.9842 -85.0325 99° East 481 554 33,000  Level Minneapolis Center
09:48PM 44.9603 -84.8094 99° East 480 552 33,000  Level Minneapolis Center
09:49PM 44.9400 -84.6247 99° East 478 550 33,000  Level Minneapolis Center
09:50PM 44.9172 -84.4403 100° East 478 550 33,000  Level Minneapolis Center
09:51PM 44.8914 -84.2192 99° East 478 550 33,000  Level Minneapolis Center
09:52PM 44.8661 -83.9994 99° East 476 548 33,000  Level Minneapolis Center
09:53PM 44.8425 -83.8158 100° East 476 548 33,000  Level Minneapolis Center
09:54PM 44.8197 -83.6339 100° East 474 545 33,000  Level Minneapolis Center
09:55PM 44.8025 -83.4869 99° East 476 548 33,000  Level Minneapolis Center
09:56PM 44.7756 -83.2675 100° East 475 547 33,000  Level Minneapolis Center
09:57PM 44.7522 -83.0847 100° East 476 548 33,000  Level Minneapolis Center
09:58PM 44.7283 -82.9028 100° East 475 547 33,000  Level Minneapolis Center
09:59PM 44.7047 -82.7219 100° East 473 544 33,000  Level Minneapolis Center
10:00PM 44.6786 -82.5406 101° East 474 545 33,000  Level Minneapolis Center
10:01PM 44.6333 -82.3333 107° East 470 541 33,000  Level Toronto Center
10:02PM 44.6000 -82.1333 103° East 480 552 33,000  Level Toronto Center
10:03PM 44.5833 -81.9500 97° East 470 541 33,000  Level Toronto Center
10:04PM 44.5667 -81.7833 98° East 480 552 33,000  Level Toronto Center
10:05PM 44.5333 -81.5667 102° East 480 552 33,000  Level Toronto Center
10:06PM 44.5000 -81.4167 107° East 480 552 33,000  Level Toronto Center
10:07PM 44.4833 -81.2167 97° East 500 575 33,000 120 Level Toronto Center
10:08PM 44.4500 -81.0167 103° East 490 564 33,300 600 Climbing Toronto Center
10:09PM 44.4167 -80.8500 106° East 490 564 34,200 720 Climbing Toronto Center
10:10PM 44.4000 -80.6667 97° East 490 564 34,800 360 Climbing Toronto Center
10:11PM 44.3667 -80.4667 103° East 490 564 35,000 60 Climbing Toronto Center
10:12PM 44.3500 -80.2833 97° East 500 575 35,000  Level Toronto Center
10:13PM 44.3167 -80.0833 103° East 510 587 35,000  Level Toronto Center
10:14PM 44.2833 -79.8833 103° East 510 587 35,000  Level Toronto Center
10:15PM 44.2500 -79.7000 104° East 510 587 35,000  Level Toronto Center
10:16PM 44.2167 -79.5000 103° East 510 587 35,000  Level Toronto Center
10:17PM 44.1833 -79.3000 103° East 510 587 35,000  Level Toronto Center
10:18PM 44.1500 -79.1000 103° East 510 587 35,000  Level Toronto Center
10:19PM 44.1167 -78.9167 104° East 510 587 35,000  Level Toronto Center
10:20PM 44.0833 -78.7000 102° East 510 587 35,000  Level Toronto Center
10:21PM 44.0667 -78.5167 97° East 510 587 35,000  Level Toronto Center
10:22PM 44.0167 -78.3333 111° Southeast 520 598 35,000  Level Toronto Center
10:23PM 43.9833 -78.1333 103° East 520 598 35,000  Level Toronto Center
10:24PM 43.9500 -77.9500 104° East 510 587 35,000  Level Toronto Center
10:25PM 43.9167 -77.7500 103° East 510 587 35,000  Level Toronto Center
10:26PM 43.8833 -77.5667 104° East 510 587 35,000 -300 Level Toronto Center
10:27PM 43.8333 -77.3667 109° East 510 587 34,400 -720 Descending Toronto Center
10:28PM 43.8000 -77.1833 104° East 520 598 33,600 -720 Descending Toronto Center
10:29PM 43.7667 -76.9833 103° East 520 598 33,000 -300 Descending Toronto Center
10:30PM 43.7500 -76.8000 97° East 520 598 33,000  Level Toronto Center
10:31PM 43.6833 -76.6167 117° Southeast 510 587 33,000  Level Toronto Center
10:32PM 43.6167 -76.4500 119° Southeast 500 575 33,000  Level Toronto Center
10:33PM 43.5667 -76.2667 111° Southeast 500 575 33,000  Level Toronto Center
10:34PM 43.5000 -76.1167 121° Southeast 500 575 33,000  Level Toronto Center
10:35PM 43.4167 -75.9667 127° Southeast 490 564 33,000  Level Toronto Center
10:36PM 43.3667 -75.7500 108° East 500 575 33,000  Level Toronto Center
10:37PM 43.3000 -75.6000 121° Southeast 500 575 33,000 -1,200 Level Toronto Center
10:38PM 43.2500 -75.4167 110° East 500 575 30,700 -2,760 Descending Toronto Center
10:39PM 43.2167 -75.2333 104° East 490 564 27,500 -3,300 Descending Toronto Center
10:40PM 43.1500 -75.0667 119° Southeast 480 552 24,100 -3,180 Descending Toronto Center
10:41PM 43.1000 -74.9333 117° Southeast 470 541 21,200 -2,760 Descending Toronto Center
10:42PM 43.0975 -74.8769 93° East 439 505 20,000 -2,520 Descending Boston Center
10:42PM 43.0681 -74.7906 115° Southeast 433 498 18,500 -2,580 Descending Boston Center
10:43PM 43.0269 -74.6639 114° Southeast 399 459 16,000 -2,580 Descending Boston Center
10:44PM 42.9836 -74.5206 112° Southeast 383 441 13,400 -2,460 Descending Boston Center
10:45PM 42.9692 -74.3922 99° East 365 420 11,100 -1,500 Descending Boston Center
10:46PM 42.9592 -74.2531 96° East 347 399 10,400 -1,200 Descending Boston Center
10:47PM 42.9503 -74.1478 97° East 311 358 8,700 -2,100 Descending Boston Center
10:48PM 42.9417 -74.0311 96° East 293 337 6,200 -2,340 Descending Boston Center
10:49PM 42.9344 -73.9375 96° East 282 325 4,100 -2,100 Descending Boston Center